createdAt,value
2018-08-16T00:00:48.570Z,57.37
2018-08-16T00:03:18.340Z,57.31
2018-08-16T00:05:48.550Z,57.47
2018-08-16T00:08:18.127Z,57.52
2018-08-16T00:10:47.550Z,58.13
2018-08-16T00:13:18.634Z,58.25
2018-08-16T00:15:48.533Z,59.55
2018-08-16T00:18:17.998Z,59.71
2018-08-16T00:20:47.961Z,59.57
2018-08-16T00:23:17.362Z,59.39
2018-08-16T00:25:47.269Z,59.40
2018-08-16T00:28:17.120Z,59.68
2018-08-16T00:30:46.794Z,59.39
2018-08-16T00:33:17.104Z,59.41
2018-08-16T00:35:46.686Z,59.48
2018-08-16T00:38:16.228Z,59.41
2018-08-16T00:40:46.238Z,59.91
2018-08-16T00:43:16.483Z,59.86
2018-08-16T00:45:46.234Z,59.79
2018-08-16T00:48:15.698Z,59.79
2018-08-16T00:50:45.725Z,59.34
2018-08-16T00:53:15.235Z,59.30
2018-08-16T00:55:44.631Z,59.69
2018-08-16T00:58:14.504Z,59.33
2018-08-16T01:00:43.953Z,59.34
2018-08-16T01:03:13.433Z,59.51
2018-08-16T01:05:43.595Z,59.45
2018-08-16T01:08:13.178Z,59.51
2018-08-16T01:10:42.898Z,59.84
2018-08-16T01:13:13.031Z,59.71
2018-08-16T01:15:42.536Z,60.02
2018-08-16T01:18:12.419Z,60.46
2018-08-16T01:20:42.192Z,60.51
2018-08-16T01:23:11.981Z,60.15
2018-08-16T01:25:41.616Z,60.69
2018-08-16T01:28:11.725Z,60.71
2018-08-16T01:30:41.101Z,60.86
2018-08-16T01:33:10.654Z,61.17
2018-08-16T01:35:40.806Z,61.82
2018-08-16T01:38:11.172Z,61.34
2018-08-16T01:40:41.032Z,61.00
2018-08-16T01:43:11.081Z,61.28
2018-08-16T01:45:40.966Z,59.94
2018-08-16T01:48:11.669Z,59.98
2018-08-16T01:50:41.619Z,59.78
2018-08-16T01:53:11.585Z,59.90
2018-08-16T01:55:41.378Z,59.77
2018-08-16T01:58:11.193Z,59.80
2018-08-16T02:00:40.803Z,59.92
2018-08-16T02:03:10.722Z,59.53
2018-08-16T02:05:40.307Z,59.85
2018-08-16T02:08:10.051Z,59.82
2018-08-16T02:10:39.858Z,59.82
2018-08-16T02:13:09.529Z,59.63
2018-08-16T02:15:38.935Z,59.89
2018-08-16T02:18:08.703Z,59.87
2018-08-16T02:20:38.460Z,59.99
2018-08-16T02:23:07.928Z,60.02
2018-08-16T02:25:37.809Z,60.28
2018-08-16T02:28:08.042Z,60.63
2018-08-16T02:30:37.434Z,60.81
2018-08-16T02:33:07.546Z,60.76
2018-08-16T02:35:37.344Z,61.27
2018-08-16T02:38:06.859Z,60.86
2018-08-16T02:40:36.389Z,60.88
2018-08-16T02:43:06.282Z,60.79
2018-08-16T02:45:36.010Z,60.92
2018-08-16T02:48:05.830Z,60.96
2018-08-16T02:50:35.509Z,61.03
2018-08-16T02:53:05.334Z,61.57
2018-08-16T02:55:35.001Z,61.37
2018-08-16T02:58:04.716Z,61.53
2018-08-16T03:00:34.315Z,61.45
2018-08-16T03:03:09.318Z,61.48
2018-08-16T03:05:38.961Z,61.62
2018-08-16T03:08:09.347Z,61.19
2018-08-16T03:10:39.476Z,61.49
2018-08-16T03:13:08.981Z,61.76
2018-08-16T03:15:38.585Z,61.72
2018-08-16T03:18:08.684Z,61.83
2018-08-16T03:20:38.224Z,61.72
2018-08-16T03:23:08.156Z,62.40
2018-08-16T03:25:38.770Z,62.46
2018-08-16T03:28:08.200Z,62.18
2018-08-16T03:30:37.543Z,62.37
2018-08-16T03:33:07.279Z,62.20
2018-08-16T03:35:37.106Z,62.33
2018-08-16T03:38:06.968Z,62.38
2018-08-16T03:40:39.614Z,62.39
2018-08-16T03:43:09.523Z,62.84
2018-08-16T03:45:39.550Z,62.87
2018-08-16T03:48:09.507Z,62.08
2018-08-16T03:50:38.919Z,62.37
2018-08-16T03:53:08.490Z,62.23
2018-08-16T03:55:38.610Z,61.80
2018-08-16T03:58:08.379Z,61.65
2018-08-16T04:00:38.052Z,62.16
2018-08-16T04:03:07.876Z,62.08
2018-08-16T04:05:37.431Z,62.70
2018-08-16T04:08:07.592Z,63.10
2018-08-16T04:10:37.535Z,62.86
2018-08-16T04:13:07.146Z,62.81
2018-08-16T04:15:36.642Z,62.62
2018-08-16T04:18:06.106Z,63.18
2018-08-16T04:20:35.966Z,63.16
2018-08-16T04:23:05.723Z,62.80
2018-08-16T04:25:35.400Z,62.81
2018-08-16T04:28:05.198Z,63.78
2018-08-16T04:30:35.130Z,63.09
2018-08-16T04:33:04.779Z,63.14
2018-08-16T04:35:34.381Z,63.40
2018-08-16T04:38:05.412Z,63.36
2018-08-16T04:40:34.947Z,63.57
2018-08-16T04:43:04.409Z,62.75
2018-08-16T04:45:34.450Z,62.91
2018-08-16T04:48:03.918Z,62.67
2018-08-16T04:50:33.623Z,62.23
2018-08-16T04:53:04.048Z,62.59
2018-08-16T04:55:33.542Z,62.42
2018-08-16T04:58:03.183Z,61.88
2018-08-16T05:00:33.135Z,62.02
2018-08-16T05:03:02.903Z,62.12
2018-08-16T05:05:32.401Z,61.56
2018-08-16T05:08:01.876Z,60.82
2018-08-16T05:10:31.646Z,61.26
2018-08-16T05:13:01.205Z,61.69
2018-08-16T05:15:31.504Z,61.53
2018-08-16T05:18:01.320Z,61.55
2018-08-16T05:20:31.239Z,61.82
2018-08-16T05:23:01.236Z,61.46
2018-08-16T05:25:30.774Z,61.66
2018-08-16T05:28:00.308Z,61.57
2018-08-16T05:30:30.250Z,61.67
2018-08-16T05:32:59.751Z,61.57
2018-08-16T05:35:29.315Z,61.55
2018-08-16T05:37:59.062Z,61.30
2018-08-16T05:40:28.537Z,60.79
2018-08-16T05:42:58.270Z,60.82
2018-08-16T05:45:28.380Z,60.73
2018-08-16T05:47:58.510Z,60.73
2018-08-16T05:50:28.058Z,60.71
2018-08-16T05:52:57.402Z,60.88
2018-08-16T05:55:27.217Z,60.78
2018-08-16T05:57:56.947Z,60.45
2018-08-16T06:00:27.074Z,59.90
2018-08-16T06:02:56.711Z,60.17
2018-08-16T06:05:26.390Z,59.54
2018-08-16T06:07:56.538Z,59.32
2018-08-16T06:10:26.256Z,59.21
2018-08-16T06:12:55.828Z,59.66
2018-08-16T06:15:25.865Z,59.78
2018-08-16T06:17:55.353Z,60.00
2018-08-16T06:20:25.174Z,59.19
2018-08-16T06:22:54.678Z,58.15
2018-08-16T06:25:24.484Z,58.18
2018-08-16T06:27:54.108Z,58.50
2018-08-16T06:30:23.855Z,58.86
2018-08-16T06:32:53.459Z,57.57
2018-08-16T06:35:23.048Z,57.37
2018-08-16T06:37:53.035Z,57.87
2018-08-16T06:40:22.864Z,58.11
2018-08-16T06:42:52.279Z,57.69
2018-08-16T06:45:22.700Z,57.11
2018-08-16T06:47:52.198Z,57.27
2018-08-16T06:50:21.900Z,59.21
2018-08-16T06:52:51.692Z,57.59
2018-08-16T06:55:21.516Z,58.02
2018-08-16T06:57:51.225Z,57.34
2018-08-16T07:00:20.801Z,56.92
2018-08-16T07:02:50.558Z,56.60
2018-08-16T07:05:20.260Z,56.54
2018-08-16T07:07:50.127Z,55.51
2018-08-16T07:10:20.088Z,55.57
2018-08-16T07:12:49.567Z,54.83
2018-08-16T07:15:19.473Z,53.84
2018-08-16T07:17:49.187Z,54.96
2018-08-16T07:20:18.956Z,55.57
2018-08-16T07:22:48.978Z,55.62
2018-08-16T07:25:18.343Z,54.75
2018-08-16T07:27:47.876Z,54.14
2018-08-16T07:30:17.918Z,52.65
2018-08-16T07:32:47.498Z,53.73
2018-08-16T07:35:17.022Z,54.13
2018-08-16T07:37:47.221Z,54.03
2018-08-16T07:40:16.830Z,52.26
2018-08-16T07:42:46.648Z,53.62
2018-08-16T07:45:16.486Z,52.87
2018-08-16T07:47:46.222Z,52.74
2018-08-16T07:50:16.030Z,52.29
2018-08-16T07:52:46.150Z,52.02
2018-08-16T07:55:15.630Z,49.97
2018-08-16T07:57:45.234Z,49.65
2018-08-16T08:00:17.938Z,50.97
2018-08-16T08:02:47.842Z,50.41
2018-08-16T08:05:17.504Z,50.57
2018-08-16T08:07:47.264Z,51.13
2018-08-16T08:10:16.956Z,48.90
2018-08-16T08:12:46.529Z,48.54
2018-08-16T08:15:16.847Z,50.00
2018-08-16T08:17:46.536Z,49.32
2018-08-16T08:20:16.745Z,48.39
2018-08-16T08:22:47.044Z,47.18
2018-08-16T08:25:16.932Z,49.21
2018-08-16T08:27:46.580Z,49.29
2018-08-16T08:30:17.375Z,47.43
2018-08-16T08:32:47.083Z,47.38
2018-08-16T08:35:16.698Z,47.84
2018-08-16T08:37:58.665Z,47.68
2018-08-16T08:40:28.512Z,47.94
2018-08-16T08:42:58.248Z,46.46
2018-08-16T08:45:28.163Z,46.74
2018-08-16T08:47:58.649Z,46.92
2018-08-16T08:50:28.901Z,45.78
2018-08-16T08:53:09.475Z,46.78
2018-08-16T08:55:50.667Z,43.56
2018-08-16T08:59:01.715Z,44.22
2018-08-16T09:01:31.415Z,46.33
2018-08-16T09:04:00.821Z,44.94
2018-08-16T09:06:30.585Z,44.49
2018-08-16T09:09:00.499Z,43.59
2018-08-16T09:11:40.889Z,43.32
2018-08-16T09:14:21.931Z,43.91
2018-08-16T09:16:51.292Z,41.68
2018-08-16T09:19:20.945Z,43.06
2018-08-16T09:21:50.881Z,43.21
2018-08-16T09:24:20.569Z,43.04
2018-08-16T09:26:49.858Z,41.74
2018-08-16T09:29:50.056Z,42.90
2018-08-16T09:32:30.435Z,42.09
2018-08-16T09:35:00.579Z,40.58
2018-08-16T09:37:35.317Z,40.01
2018-08-16T09:40:06.004Z,39.81
2018-08-16T09:42:35.797Z,40.04
2018-08-16T09:45:16.573Z,40.13
2018-08-16T09:47:57.043Z,39.93
2018-08-16T09:50:26.707Z,39.58
2018-08-16T09:52:56.808Z,36.80
2018-08-16T09:55:26.309Z,36.77
2018-08-16T09:57:56.131Z,36.43
2018-08-16T10:00:31.062Z,35.89
2018-08-16T10:03:00.790Z,37.85
2018-08-16T10:05:30.223Z,35.10
2018-08-16T10:07:59.958Z,36.44
2018-08-16T10:10:30.218Z,36.35
2018-08-16T10:12:59.607Z,35.60
2018-08-16T10:15:29.529Z,35.40
2018-08-16T10:17:58.891Z,35.87
2018-08-16T10:20:28.514Z,34.53
2018-08-16T10:22:57.933Z,33.24
2018-08-16T10:25:27.937Z,32.26
2018-08-16T10:27:57.567Z,31.10
2018-08-16T10:30:26.909Z,33.21
2018-08-16T10:32:57.545Z,31.48
2018-08-16T10:35:27.302Z,31.54
2018-08-16T10:37:56.839Z,30.79
2018-08-16T10:40:26.582Z,31.69
2018-08-16T10:42:56.326Z,31.62
2018-08-16T10:45:25.744Z,29.96
2018-08-16T10:47:55.813Z,31.23
2018-08-16T10:50:25.782Z,31.76
2018-08-16T10:52:55.034Z,31.89
2018-08-16T10:55:25.215Z,30.98
2018-08-16T10:57:55.201Z,30.73
2018-08-16T11:00:24.927Z,31.90
2018-08-16T11:02:54.997Z,32.25
2018-08-16T11:05:24.525Z,31.77
2018-08-16T11:07:53.944Z,32.93
2018-08-16T11:10:23.769Z,32.22
2018-08-16T11:12:53.446Z,31.05
2018-08-16T11:15:23.237Z,32.61
2018-08-16T11:17:52.950Z,31.98
2018-08-16T11:20:22.400Z,31.18
2018-08-16T11:22:52.319Z,30.41
2018-08-16T11:25:22.270Z,29.63
2018-08-16T11:27:51.661Z,29.93
2018-08-16T11:30:21.307Z,31.14
2018-08-16T11:32:51.011Z,32.21
2018-08-16T11:35:20.690Z,31.06
2018-08-16T11:37:50.726Z,31.31
2018-08-16T11:40:20.742Z,32.02
2018-08-16T11:42:50.821Z,30.62
2018-08-16T11:45:20.271Z,30.05
2018-08-16T11:47:50.462Z,30.48
2018-08-16T11:50:20.074Z,28.20
2018-08-16T11:52:49.478Z,30.00
2018-08-16T11:55:19.735Z,30.66
2018-08-16T11:57:49.283Z,30.38
2018-08-16T12:00:18.936Z,31.40
2018-08-16T12:02:48.529Z,31.60
2018-08-16T12:05:18.347Z,32.42
2018-08-16T12:07:48.166Z,34.16
2018-08-16T12:10:18.112Z,32.86
2018-08-16T12:12:47.537Z,30.75
2018-08-16T12:15:17.184Z,30.59
2018-08-16T12:17:47.408Z,28.16
2018-08-16T12:20:16.941Z,29.89
2018-08-16T12:22:46.627Z,29.61
2018-08-16T12:25:16.574Z,29.07
2018-08-16T12:27:46.354Z,29.52
2018-08-16T12:30:15.977Z,30.67
2018-08-16T12:32:45.528Z,29.28
2018-08-16T12:35:15.161Z,30.49
2018-08-16T12:37:44.853Z,29.69
2018-08-16T12:40:14.215Z,30.37
2018-08-16T12:42:43.697Z,29.91
2018-08-16T12:45:13.358Z,30.89
2018-08-16T12:47:42.981Z,31.66
2018-08-16T12:50:12.743Z,31.66
2018-08-16T12:52:42.635Z,32.56
2018-08-16T12:55:12.607Z,32.25
2018-08-16T12:57:42.173Z,32.98
2018-08-16T13:00:15.721Z,31.03
2018-08-16T13:02:45.733Z,30.22
2018-08-16T13:05:15.394Z,31.61
2018-08-16T13:07:45.525Z,30.73
2018-08-16T13:10:15.227Z,31.02
2018-08-16T13:12:44.937Z,32.23
2018-08-16T13:15:15.454Z,32.09
2018-08-16T13:17:45.074Z,33.84
2018-08-16T13:20:14.943Z,32.57
2018-08-16T13:22:45.189Z,32.84
2018-08-16T13:25:15.783Z,33.82
2018-08-16T13:27:45.320Z,33.51
2018-08-16T13:30:14.735Z,33.15
2018-08-16T13:32:44.070Z,33.67
2018-08-16T13:35:14.294Z,33.17
2018-08-16T13:37:43.779Z,31.74
2018-08-16T13:40:13.588Z,30.98
2018-08-16T13:42:43.753Z,30.42
2018-08-16T13:45:13.436Z,30.62
2018-08-16T13:47:43.050Z,30.43
2018-08-16T13:50:13.185Z,29.93
2018-08-16T13:52:42.559Z,30.10
2018-08-16T13:55:12.597Z,30.66
2018-08-16T13:57:42.827Z,30.11
2018-08-16T14:00:12.371Z,31.75
2018-08-16T14:02:42.037Z,30.54
2018-08-16T14:05:11.929Z,29.87
2018-08-16T14:07:41.915Z,29.81
2018-08-16T14:10:11.702Z,28.44
2018-08-16T14:12:41.224Z,29.23
2018-08-16T14:15:10.733Z,28.05
2018-08-16T14:17:40.336Z,27.92
2018-08-16T14:20:10.389Z,29.00
2018-08-16T14:22:40.102Z,29.03
2018-08-16T14:25:09.622Z,29.45
2018-08-16T14:27:39.469Z,29.71
2018-08-16T14:30:09.551Z,30.47
2018-08-16T14:32:39.517Z,30.97
2018-08-16T14:35:09.286Z,32.10
2018-08-16T14:37:39.324Z,32.28
2018-08-16T14:40:09.238Z,33.72
2018-08-16T14:42:38.902Z,33.92
2018-08-16T14:45:08.860Z,34.85
2018-08-16T14:47:38.673Z,34.60
2018-08-16T14:50:08.723Z,35.31
2018-08-16T14:52:38.486Z,35.87
2018-08-16T14:55:08.111Z,34.00
2018-08-16T14:57:38.413Z,33.13
2018-08-16T15:00:08.968Z,32.99
2018-08-16T15:02:38.847Z,32.27
2018-08-16T15:05:09.790Z,32.52
2018-08-16T15:07:39.475Z,33.07
2018-08-16T15:10:09.098Z,31.79
2018-08-16T15:12:38.899Z,31.13
2018-08-16T15:15:08.881Z,32.09
2018-08-16T15:17:38.451Z,31.56
2018-08-16T15:20:08.599Z,31.87
2018-08-16T15:22:38.303Z,31.93
2018-08-16T15:25:07.975Z,32.48
2018-08-16T15:27:37.759Z,31.38
2018-08-16T15:30:08.708Z,31.56
2018-08-16T15:32:38.332Z,31.62
2018-08-16T15:35:08.423Z,31.75
2018-08-16T15:37:38.262Z,32.18
2018-08-16T15:40:08.147Z,31.78
2018-08-16T15:42:38.290Z,32.08
2018-08-16T15:45:08.378Z,31.80
2018-08-16T15:47:37.868Z,32.34
2018-08-16T15:50:07.503Z,31.79
2018-08-16T15:52:37.096Z,32.00
2018-08-16T15:55:07.340Z,31.06
2018-08-16T15:57:37.450Z,32.06
2018-08-16T16:00:10.324Z,31.79
2018-08-16T16:02:41.093Z,31.41
2018-08-16T16:05:11.165Z,31.82
2018-08-16T16:07:40.777Z,31.50
2018-08-16T16:10:11.325Z,31.58
2018-08-16T16:12:41.430Z,32.32
2018-08-16T16:15:11.563Z,32.68
2018-08-16T16:17:42.270Z,33.49
2018-08-16T16:20:12.124Z,33.88
2018-08-16T16:22:41.813Z,33.59
2018-08-16T16:25:11.957Z,34.32
2018-08-16T16:27:41.752Z,35.27
2018-08-16T16:30:11.759Z,35.02
2018-08-16T16:32:42.011Z,35.36
2018-08-16T16:35:11.885Z,36.71
2018-08-16T16:37:41.440Z,36.92
2018-08-16T16:40:11.808Z,38.87
2018-08-16T16:42:41.509Z,36.66
2018-08-16T16:45:11.257Z,37.16
2018-08-16T16:47:41.238Z,36.59
2018-08-16T16:50:10.725Z,37.44
2018-08-16T16:52:40.384Z,37.60
2018-08-16T16:55:10.282Z,36.81
2018-08-16T16:57:39.710Z,36.62
2018-08-16T17:00:09.972Z,38.11
2018-08-16T17:02:39.648Z,37.88
2018-08-16T17:05:09.014Z,37.30
2018-08-16T17:07:38.874Z,37.64
2018-08-16T17:10:10.809Z,39.90
2018-08-16T17:12:40.640Z,40.56
2018-08-16T17:15:10.594Z,41.02
2018-08-16T17:17:40.963Z,40.44
2018-08-16T17:20:11.623Z,40.82
2018-08-16T17:22:42.285Z,40.88
2018-08-16T17:25:11.964Z,38.71
2018-08-16T17:27:41.757Z,40.59
2018-08-16T17:30:11.912Z,39.04
2018-08-16T17:32:41.690Z,37.72
2018-08-16T17:35:11.211Z,38.67
2018-08-16T17:37:41.274Z,40.59
2018-08-16T17:40:10.794Z,41.16
2018-08-16T17:42:40.795Z,40.30
2018-08-16T17:45:10.640Z,39.60
2018-08-16T17:47:40.303Z,41.75
2018-08-16T17:50:10.071Z,40.95
2018-08-16T17:52:39.923Z,41.00
2018-08-16T17:55:09.493Z,39.20
2018-08-16T17:57:39.098Z,40.77
2018-08-16T18:00:10.493Z,39.22
2018-08-16T18:02:39.846Z,39.40
2018-08-16T18:05:09.481Z,39.32
2018-08-16T18:07:39.074Z,38.20
2018-08-16T18:10:09.461Z,39.35
2018-08-16T18:12:39.186Z,39.14
2018-08-16T18:15:10.631Z,39.36
2018-08-16T18:17:40.214Z,40.65
2018-08-16T18:20:09.719Z,39.89
2018-08-16T18:22:39.624Z,40.16
2018-08-16T18:25:09.424Z,40.67
2018-08-16T18:27:39.029Z,39.68
2018-08-16T18:30:10.810Z,39.35
2018-08-16T18:32:40.408Z,40.31
2018-08-16T18:35:10.006Z,39.74
2018-08-16T18:37:40.035Z,39.69
2018-08-16T18:40:09.985Z,39.90
2018-08-16T18:42:39.668Z,41.45
2018-08-16T18:45:09.795Z,40.53
2018-08-16T18:47:39.591Z,41.06
2018-08-16T18:50:09.422Z,41.34
2018-08-16T18:52:39.538Z,41.67
2018-08-16T18:55:09.092Z,41.99
2018-08-16T18:57:39.063Z,42.99
2018-08-16T19:00:09.696Z,43.23
2018-08-16T19:02:39.314Z,43.87
2018-08-16T19:05:08.998Z,43.45
2018-08-16T19:07:38.788Z,43.95
2018-08-16T19:10:09.438Z,44.41
2018-08-16T19:12:39.238Z,44.63
2018-08-16T19:15:08.982Z,44.38
2018-08-16T19:17:38.693Z,44.61
2018-08-16T19:20:09.601Z,44.13
2018-08-16T19:22:39.207Z,44.14
2018-08-16T19:25:09.263Z,44.56
2018-08-16T19:27:39.138Z,44.92
2018-08-16T19:30:08.820Z,44.84
2018-08-16T19:32:38.385Z,45.63
2018-08-16T19:35:08.311Z,46.08
2018-08-16T19:37:38.168Z,45.25
2018-08-16T19:40:07.575Z,45.58
2018-08-16T19:42:37.740Z,45.85
2018-08-16T19:45:07.741Z,45.68
2018-08-16T19:47:37.259Z,45.99
2018-08-16T19:50:08.799Z,46.26
2018-08-16T19:52:38.475Z,45.74
2018-08-16T19:55:08.737Z,45.79
2018-08-16T19:57:38.678Z,45.84
2018-08-16T20:00:09.489Z,45.94
2018-08-16T20:02:39.441Z,46.40
2018-08-16T20:05:08.834Z,46.50
2018-08-16T20:07:38.444Z,46.88
2018-08-16T20:10:10.103Z,46.36
2018-08-16T20:12:39.783Z,46.73
2018-08-16T20:15:09.906Z,46.80
2018-08-16T20:17:39.855Z,46.46
2018-08-16T20:20:09.452Z,46.84
2018-08-16T20:22:39.150Z,46.11
2018-08-16T20:25:08.983Z,45.92
2018-08-16T20:27:38.818Z,46.07
2018-08-16T20:30:08.512Z,46.77
2018-08-16T20:32:37.967Z,46.32
2018-08-16T20:35:07.579Z,46.69
2018-08-16T20:37:37.325Z,47.00
2018-08-16T20:40:07.232Z,47.13
2018-08-16T20:59:58.703Z,47.40
2018-08-16T21:02:28.355Z,47.41
2018-08-16T21:04:57.789Z,47.82
2018-08-16T21:07:27.299Z,47.74
2018-08-16T21:09:57.059Z,48.23
2018-08-16T21:12:26.601Z,49.09
2018-08-16T21:14:56.190Z,48.79
2018-08-16T21:34:48.301Z,50.83
2018-08-16T21:37:17.977Z,50.34
2018-08-16T21:57:09.973Z,51.34
2018-08-16T21:59:39.449Z,51.92
2018-08-16T22:02:09.915Z,51.40
2018-08-16T22:04:39.970Z,50.76
2018-08-16T22:08:15.857Z,51.02
2018-08-16T22:10:46.226Z,50.92
2018-08-16T22:13:15.994Z,51.12
2018-08-16T22:33:07.684Z,52.99
2018-08-16T23:13:17.169Z,53.89
2018-08-16T23:15:47.045Z,53.82
2018-08-16T23:18:16.951Z,54.13
2018-08-16T23:20:47.121Z,53.42
2018-08-16T23:23:17.007Z,53.89
2018-08-16T23:25:46.921Z,53.82
2018-08-16T23:28:17.469Z,54.16
2018-08-16T23:30:48.081Z,54.49
2018-08-16T23:33:18.082Z,54.35
2018-08-16T23:35:48.073Z,54.56
2018-08-16T23:38:18.592Z,54.82
2018-08-16T23:40:48.919Z,54.83
2018-08-16T23:43:18.828Z,54.94
2018-08-16T23:45:48.663Z,54.68
2018-08-16T23:48:26.695Z,54.78
